Time;durP1;ratioP1;P1;durP2;ratioP2;P2;SDS_P1;SDS_P2;PMS_P1;PMS_P2;Temp;Humidity;BMP_temperature;BMP_pressure;BME280_temperature;BME280_humidity;BME280_pressure;Samples;Min_cycle;Max_cycle;Signal;HPM_P1;HPM_P2
2022/11/21 00:00:36;;;;;;;30.75;8.52;;;;;;;4.54;100.00;100519.66;5033879;28;20029;-80
2022/11/21 00:03:01;;;;;;;32.22;9.27;;;;;;;4.60;100.00;100537.72;5033940;28;20017;-80
2022/11/21 00:05:28;;;;;;;31.00;9.20;;;;;;;4.54;100.00;100523.97;5033247;28;20021;-80
2022/11/21 00:07:54;;;;;;;33.65;9.15;;;;;;;4.46;100.00;100530.03;5033766;28;20032;-80
2022/11/21 00:10:20;;;;;;;26.92;8.65;;;;;;;4.41;100.00;100538.66;5033911;28;20029;-80
2022/11/21 00:12:46;;;;;;;29.85;8.88;;;;;;;4.34;100.00;100545.56;5032995;28;20025;-80
2022/11/21 00:15:12;;;;;;;23.27;8.55;;;;;;;4.27;100.00;100549.03;5033601;28;20496;-80
2022/11/21 00:17:37;;;;;;;28.60;8.27;;;;;;;4.16;100.00;100546.47;5033725;28;20076;-80
2022/11/21 00:20:02;;;;;;;35.78;8.75;;;;;;;4.11;100.00;100550.75;5033153;28;20044;-79
2022/11/21 00:22:29;;;;;;;28.42;8.77;;;;;;;4.05;100.00;100537.00;5033475;28;20120;-79
2022/11/21 00:24:54;;;;;;;40.50;9.38;;;;;;;4.15;100.00;100560.25;5033713;28;20094;-80
2022/11/21 00:27:19;;;;;;;31.42;8.82;;;;;;;4.23;100.00;100570.53;5032846;28;20474;-80
2022/11/21 00:29:45;;;;;;;27.35;8.65;;;;;;;4.28;100.00;100563.63;5033520;28;20033;-81
2022/11/21 00:32:10;;;;;;;36.15;8.82;;;;;;;4.32;100.00;100557.63;5033708;28;20049;-80
2022/11/21 00:34:35;;;;;;;31.88;8.65;;;;;;;4.35;100.00;100562.78;5032622;28;20037;-80
2022/11/21 00:37:00;;;;;;;45.88;7.93;;;;;;;4.31;100.00;100553.31;5033548;28;20029;-80
2022/11/21 00:39:26;;;;;;;34.78;7.57;;;;;;;4.20;100.00;100548.16;5032537;28;20028;-80
2022/11/21 00:41:51;;;;;;;32.22;8.50;;;;;;;4.18;100.00;100556.78;5033627;28;20025;-80
2022/11/21 00:44:16;;;;;;;35.60;7.72;;;;;;;4.12;100.00;100549.94;5033102;28;20034;-80
2022/11/21 00:46:42;;;;;;;44.67;7.65;;;;;;;4.08;100.00;100537.88;5032576;28;20029;-80
2022/11/21 00:49:07;;;;;;;25.75;6.97;;;;;;;4.10;100.00;100535.31;5033528;28;20384;-80
2022/11/21 00:51:32;;;;;;;31.67;6.90;;;;;;;4.10;100.00;100530.16;5033420;28;20022;-80
2022/11/21 00:53:58;;;;;;;27.08;8.15;;;;;;;4.12;100.00;100534.44;5032617;28;20108;-80
2022/11/21 00:56:23;;;;;;;37.42;7.05;;;;;;;4.11;100.00;100542.16;5033336;28;20025;-80
2022/11/21 00:58:48;;;;;;;27.02;6.90;;;;;;;4.09;100.00;100538.75;5033271;28;20053;-80
2022/11/21 01:01:15;;;;;;;30.65;6.90;;;;;;;4.01;100.00;100537.88;5032345;28;20025;-80
2022/11/21 01:03:41;;;;;;;25.25;6.72;;;;;;;3.93;100.00;100551.66;5033311;28;20026;-80
2022/11/21 01:06:09;;;;;;;29.02;6.22;;;;;;;3.78;100.00;100532.75;5036783;28;20477;-80
2022/11/21 01:08:36;;;;;;;33.92;6.85;;;;;;;3.70;100.00;100543.09;5036618;28;20028;-80
2022/11/21 01:11:06;;;;;;;26.65;5.78;;;;;;;3.61;100.00;100551.66;5037575;28;20400;-80
2022/11/21 01:13:33;;;;;;;32.25;6.80;;;;;;;3.52;100.00;100555.09;5037008;28;20061;-80
2022/11/21 01:16:06;;;;;;;28.08;6.22;;;;;;;3.50;100.00;100550.81;5036464;28;20033;-79
2022/11/21 01:18:32;;;;;;;31.38;6.03;;;;;;;3.55;100.00;100553.38;5037319;28;20033;-79
2022/11/21 01:21:12;;;;;;;26.73;6.43;;;;;;;3.59;100.00;100562.84;5036865;28;20100;-79
2022/11/21 01:23:37;;;;;;;30.45;6.70;;;;;;;3.63;100.00;100551.66;5036053;28;20053;-79
2022/11/21 01:26:05;;;;;;;43.65;6.60;;;;;;;3.69;100.00;100556.81;5037110;28;20095;-80
2022/11/21 01:28:31;;;;;;;25.20;6.90;;;;;;;3.68;100.00;100544.78;5037094;28;20040;-80
2022/11/21 01:31:23;;;;;;;44.92;6.97;;;;;;;3.69;100.00;100546.50;5036270;28;20407;-79
2022/11/21 01:33:49;;;;;;;31.63;6.85;;;;;;;3.61;100.00;100533.63;5033523;28;20033;-79
2022/11/21 01:36:23;;;;;;;31.65;6.03;;;;;;;3.60;100.00;100544.81;5035795;28;20033;-79
2022/11/21 01:38:53;;;;;;;28.00;6.15;;;;;;;3.54;100.00;100549.09;5036854;28;20022;-79
2022/11/21 01:41:24;;;;;;;35.75;6.70;;;;;;;3.49;100.00;100549.06;5036792;28;20025;-79
2022/11/21 01:43:49;;;;;;;25.23;6.75;;;;;;;3.41;100.00;100540.50;5035847;28;20108;-79
2022/11/21 01:46:22;;;;;;;26.23;6.70;;;;;;;3.44;100.00;100548.22;5036664;28;20432;-79
2022/11/21 01:48:47;;;;;;;34.72;6.18;;;;;;;3.49;100.00;100552.50;5036758;28;20028;-79
2022/11/21 01:51:32;;;;;;;20.40;5.87;;;;;;;3.53;100.00;100550.78;5035550;28;20377;-79
2022/11/21 01:54:09;;;;;;;37.95;7.40;;;;;;;3.54;100.00;100547.38;5036335;28;20276;-79
2022/11/21 01:56:54;;;;;;;24.90;6.35;;;;;;;3.42;100.00;100530.16;5036276;28;20115;-79
2022/11/21 01:59:30;;;;;;;20.17;6.20;;;;;;;3.42;100.00;100537.06;5036532;28;20057;-79
2022/11/21 02:01:58;;;;;;;38.78;6.72;;;;;;;3.34;100.00;100542.22;5036483;28;20017;-79
2022/11/21 02:04:27;;;;;;;34.58;6.47;;;;;;;3.27;100.00;100540.47;5035325;28;20492;-80
2022/11/21 02:06:52;;;;;;;28.17;6.90;;;;;;;3.19;100.00;100539.59;5036284;28;20400;-79
2022/11/21 02:09:18;;;;;;;44.20;6.32;;;;;;;3.14;100.00;100542.19;5036086;28;20033;-79
2022/11/21 02:11:51;;;;;;;29.67;6.32;;;;;;;3.14;100.00;100539.59;5035478;28;20018;-79
2022/11/21 02:14:17;;;;;;;31.27;6.50;;;;;;;3.15;100.00;100551.63;5035798;28;20045;-79
2022/11/21 02:16:42;;;;;;;28.65;6.32;;;;;;;3.18;100.00;100553.34;5035582;28;20022;-79
2022/11/21 02:19:13;;;;;;;22.88;5.82;;;;;;;3.15;100.00;100543.88;5035188;28;20029;-79
2022/11/21 02:21:54;;;;;;;40.35;6.85;;;;;;;3.24;100.00;100564.53;5036025;28;20033;-79
2022/11/21 02:24:38;;;;;;;31.52;6.57;;;;;;;3.26;100.00;100561.94;5035778;28;20021;-79
2022/11/21 02:27:04;;;;;;;;;;;;;;;3.27;100.00;100561.09;5035863;28;20026;-79
2022/11/21 02:29:29;;;;;;;35.90;6.60;;;;;;;3.23;100.00;100564.50;5035908;28;19920;-79
2022/11/21 02:31:59;;;;;;;27.23;6.15;;;;;;;3.12;100.00;100554.19;5035087;28;20025;-79
2022/11/21 02:34:24;;;;;;;21.35;6.45;;;;;;;3.07;100.00;100549.88;5035668;28;20034;-79
2022/11/21 02:36:49;;;;;;;30.58;5.95;;;;;;;3.07;100.00;100552.44;5035413;28;20032;-79
2022/11/21 02:39:21;;;;;;;22.30;6.60;;;;;;;3.06;100.00;100561.88;5035031;28;20040;-79
2022/11/21 02:42:29;;;;;;;45.80;6.43;;;;;;;3.04;100.00;100561.00;5035736;28;20017;-79
2022/11/21 02:45:05;;;;;;;25.95;6.32;;;;;;;2.99;100.00;100561.00;4955213;29;20031;-79
2022/11/21 02:47:32;;;;;;;51.50;7.05;;;;;;;3.02;100.00;100567.88;4954481;29;20027;-79
2022/11/21 02:50:06;;;;;;;32.15;7.20;;;;;;;3.13;100.00;100562.75;5001046;28;20037;-79
2022/11/21 02:52:31;;;;;;;;;;;;;;;3.19;100.00;100570.50;5035876;28;20021;-79
2022/11/21 02:54:56;;;;;;;37.57;6.80;;;;;;;3.11;100.00;100552.47;5034421;28;19975;-79
2022/11/21 02:57:22;;;;;;;28.10;6.57;;;;;;;3.15;100.00;100558.47;5035113;28;20302;-79
2022/11/21 02:59:47;;;;;;;30.92;7.30;;;;;;;3.21;100.00;100561.06;5035323;28;20075;-79
2022/11/21 03:02:12;;;;;;;39.53;8.63;;;;;;;3.20;100.00;100547.31;5034272;28;20120;-79
2022/11/21 03:04:38;;;;;;;32.10;7.30;;;;;;;3.23;100.00;100565.34;5035333;28;20030;-79
2022/11/21 03:07:03;;;;;;;65.43;14.68;;;;;;;3.20;100.00;100562.75;5034395;28;20029;-79
2022/11/21 03:09:28;;;;;;;78.45;19.48;;;;;;;3.15;100.00;100555.91;5034850;28;20033;-79
2022/11/21 03:11:53;;;;;;;70.38;20.95;;;;;;;3.18;100.00;100561.06;5034880;28;20017;-79
2022/11/21 03:14:19;;;;;;;122.55;24.42;;;;;;;3.22;100.00;100562.78;5033810;28;20041;-79
2022/11/21 03:16:44;;;;;;;134.07;26.88;;;;;;;3.26;100.00;100567.09;5035084;28;20476;-79
2022/11/21 03:19:09;;;;;;;147.32;29.55;;;;;;;3.21;100.00;100549.06;5034626;28;20044;-79
2022/11/21 03:21:34;;;;;;;153.20;32.00;;;;;;;3.28;100.00;100560.22;5034173;28;20025;-79
2022/11/21 03:24:00;;;;;;;177.00;34.75;;;;;;;3.26;100.00;100564.50;5034972;28;20030;-79
2022/11/21 03:26:25;;;;;;;154.55;32.67;;;;;;;3.23;100.00;100557.63;5034728;28;20377;-79
2022/11/21 03:28:50;;;;;;;155.82;32.88;;;;;;;3.23;100.00;100546.47;5033438;28;20030;-79
2022/11/21 03:31:15;;;;;;;190.02;34.05;;;;;;;3.26;100.00;100541.31;5034638;28;20376;-79
2022/11/21 03:33:41;;;;;;;266.13;37.17;;;;;;;3.25;100.00;100549.91;5034621;28;20108;-79
2022/11/21 03:36:06;;;;;;;105.68;29.20;;;;;;;3.23;100.00;100549.91;5033897;28;20022;-79
2022/11/21 03:38:31;;;;;;;184.65;33.55;;;;;;;3.18;100.00;100543.88;5034311;28;20026;-79
2022/11/21 03:41:01;;;;;;;169.32;32.35;;;;;;;3.19;100.00;100544.75;5034370;28;20041;-79
2022/11/21 03:43:26;;;;;;;212.15;33.97;;;;;;;3.19;100.00;100545.59;5033490;28;20029;-79
2022/11/21 03:45:52;;;;;;;142.13;29.60;;;;;;;3.20;100.00;100537.00;5034089;28;20033;-79
2022/11/21 03:48:17;;;;;;;187.85;32.85;;;;;;;3.22;100.00;100553.34;5034426;28;20384;-79
2022/11/21 03:50:43;;;;;;;376.67;42.22;;;;;;;3.14;100.00;100536.13;5033379;28;20026;-79
2022/11/21 03:53:09;;;;;;;336.13;41.08;;;;;;;3.08;100.00;100528.44;5034233;28;20035;-79
2022/11/21 03:55:34;;;;;;;225.20;36.88;;;;;;;3.09;100.00;100548.16;5034091;28;20454;-79
2022/11/21 03:57:59;;;;;;;163.20;32.60;;;;;;;3.09;100.00;100548.16;5033352;28;20036;-79
2022/11/21 04:00:25;;;;;;;160.43;34.05;;;;;;;3.09;100.00;100556.75;5033878;28;20116;-79
2022/11/21 04:02:50;;;;;;;248.02;37.38;;;;;;;3.18;100.00;100558.50;5034242;28;20025;-79
2022/11/21 04:05:16;;;;;;;190.73;35.13;;;;;;;3.19;100.00;100557.63;5033161;28;20051;-79
2022/11/21 04:07:41;;;;;;;201.93;36.67;;;;;;;3.21;100.00;100558.50;5034134;28;20029;-79
2022/11/21 04:10:06;;;;;;;293.83;39.80;;;;;;;3.24;100.00;100558.50;5034002;28;20080;-79
2022/11/21 04:12:32;;;;;;;245.10;36.70;;;;;;;3.27;100.00;100558.53;5033097;28;20079;-79
2022/11/21 04:14:57;;;;;;;184.50;34.97;;;;;;;3.27;100.00;100551.66;5033449;28;20046;-79
2022/11/21 04:17:22;;;;;;;345.85;42.15;;;;;;;3.24;100.00;100536.19;5033450;28;20029;-79
2022/11/21 04:19:47;;;;;;;312.23;39.13;;;;;;;3.20;100.00;100542.16;5033541;28;20061;-79
2022/11/21 04:22:13;;;;;;;374.35;41.72;;;;;;;3.23;100.00;100546.47;5033631;28;20052;-79
2022/11/21 04:24:38;;;;;;;471.85;49.08;;;;;;;3.23;100.00;100542.16;5032940;28;20060;-79
2022/11/21 04:27:03;;;;;;;360.33;43.15;;;;;;;3.25;100.00;100548.19;5033728;28;20481;-79
2022/11/21 04:29:28;;;;;;;458.15;48.20;;;;;;;3.30;100.00;100553.34;5033481;28;20040;-79
2022/11/21 04:31:54;;;;;;;322.70;40.03;;;;;;;3.32;100.00;100548.22;5032821;28;20033;-80
2022/11/21 04:34:19;;;;;;;258.60;38.15;;;;;;;3.33;100.00;100542.19;5033641;28;20025;-79
2022/11/21 04:36:44;;;;;;;215.73;36.15;;;;;;;3.31;100.00;100528.47;5033556;28;20025;-79
2022/11/21 04:39:10;;;;;;;214.43;36.90;;;;;;;3.31;100.00;100534.47;5032777;28;20481;-79
2022/11/21 04:41:35;;;;;;;101.78;31.35;;;;;;;3.30;100.00;100522.41;5033453;28;20045;-79
2022/11/21 04:44:00;;;;;;;165.80;34.70;;;;;;;3.27;100.00;100517.28;5033759;28;20520;-79
2022/11/21 04:46:26;;;;;;;235.75;39.10;;;;;;;3.19;100.00;100506.97;5032542;28;20033;-79
2022/11/21 04:48:51;;;;;;;126.70;32.97;;;;;;;3.20;100.00;100511.25;5033484;28;20033;-79
2022/11/21 04:51:16;;;;;;;232.70;37.83;;;;;;;3.07;100.00;100499.22;5033505;28;20064;-79
2022/11/21 04:53:42;;;;;;;124.68;32.00;;;;;;;3.03;100.00;100505.22;5032744;28;20029;-79
2022/11/21 04:56:07;;;;;;;160.93;32.30;;;;;;;2.87;100.00;100501.75;5033311;28;20484;-79
2022/11/21 04:58:32;;;;;;;157.82;33.25;;;;;;;2.84;100.00;100514.59;5033239;28;20033;-79
2022/11/21 05:01:05;;;;;;;138.35;32.47;;;;;;;2.75;100.00;100501.72;5032640;28;20022;-79
2022/11/21 05:03:30;;;;;;;166.77;31.60;;;;;;;2.71;100.00;100508.56;5033461;28;20028;-79
2022/11/21 05:05:55;;;;;;;153.60;31.73;;;;;;;2.58;100.00;100492.25;5033122;28;20116;-79
2022/11/21 05:08:20;;;;;;;109.85;28.17;;;;;;;2.61;100.00;100508.53;5032496;28;20026;-79
2022/11/21 05:13:30;;;;;;;134.80;30.83;;;;;;;2.54;100.00;100503.34;5033167;28;20068;-79
2022/11/21 05:15:56;;;;;;;127.85;30.85;;;;;;;2.46;100.00;100491.34;5032476;28;20026;-79
2022/11/21 05:18:21;;;;;;;165.65;30.92;;;;;;;2.45;100.00;100493.06;5033213;28;20111;-79
2022/11/21 05:20:47;;;;;;;155.55;31.52;;;;;;;2.46;100.00;100492.19;5032405;28;20025;-79
2022/11/21 05:23:12;;;;;;;89.32;26.40;;;;;;;2.51;100.00;100495.63;5033265;28;20034;-79
2022/11/21 05:25:39;;;;;;;311.58;39.47;;;;;;;2.54;100.00;100493.06;5033206;28;20021;-79
2022/11/21 05:28:04;;;;;;;151.27;30.77;;;;;;;2.52;100.00;100479.34;5032537;28;20029;-79
2022/11/21 05:30:29;;;;;;;104.13;28.65;;;;;;;2.62;100.00;100489.69;5032682;28;20044;-79
2022/11/21 05:32:54;;;;;;;77.68;27.17;;;;;;;2.65;100.00;100476.78;5032955;28;20025;-79
2022/11/21 05:35:20;;;;;;;67.70;25.10;;;;;;;2.64;100.00;100473.38;5032641;28;20029;-79
2022/11/21 05:37:45;;;;;;;66.25;26.67;;;;;;;2.63;100.00;100475.94;5032917;28;20037;-79
2022/11/21 05:40:11;;;;;;;107.03;27.88;;;;;;;2.61;100.00;100475.94;5032742;28;20103;-79
2022/11/21 05:45:26;;;;;;;110.55;26.90;;;;;;;2.59;100.00;100459.63;5033076;28;20036;-79
2022/11/21 05:47:51;;;;;;;70.90;24.48;;;;;;;2.66;100.00;100470.81;5033064;28;20021;-79
2022/11/21 05:50:17;;;;;;;69.07;24.08;;;;;;;2.71;100.00;100479.38;5032914;28;20037;-79
2022/11/21 05:52:42;;;;;;;75.88;24.38;;;;;;;2.74;100.00;100479.41;5036504;28;20037;-79
2022/11/21 05:55:07;;;;;;;96.00;25.35;;;;;;;2.75;100.00;100460.53;5036607;28;20099;-79
2022/11/21 05:57:33;;;;;;;91.35;24.05;;;;;;;2.86;100.00;100466.56;5035660;28;20033;-79
2022/11/21 05:59:58;;;;;;;84.07;25.63;;;;;;;2.91;100.00;100463.97;5036567;28;20032;-79
2022/11/21 06:05:07;;;;;;;68.75;21.42;;;;;;;3.04;100.00;100452.84;5035702;28;20125;-79
2022/11/21 06:07:33;;;;;;;50.28;20.00;;;;;;;3.07;100.00;100462.28;5036213;28;20108;-79
2022/11/21 06:09:58;;;;;;;76.05;23.83;;;;;;;3.17;100.00;100458.88;5035501;28;20469;-79
2022/11/21 06:12:23;;;;;;;78.22;24.13;;;;;;;3.26;100.00;100471.75;5036258;28;20072;-80
2022/11/21 06:14:48;;;;;;;75.20;24.77;;;;;;;3.34;100.00;100461.47;5035724;28;20088;-79
2022/11/21 06:17:14;;;;;;;85.00;25.27;;;;;;;3.36;100.00;100449.44;5035177;28;20137;-80
2022/11/21 06:19:39;;;;;;;75.38;24.67;;;;;;;3.43;100.00;100449.44;5036216;28;20465;-79
2022/11/21 06:22:04;;;;;;;94.38;28.17;;;;;;;3.36;100.00;100433.97;5036008;28;20037;-79
2022/11/21 06:24:30;;;;;;;85.18;27.17;;;;;;;3.25;100.00;100431.41;5035082;28;20025;-79
2022/11/21 06:26:56;;;;;;;87.82;26.73;;;;;;;3.29;100.00;100444.28;5035882;28;20051;-79
2022/11/21 06:29:21;;;;;;;81.05;28.60;;;;;;;3.20;100.00;100439.13;5035669;28;20026;-79
2022/11/21 06:31:46;;;;;;;84.72;27.70;;;;;;;3.13;100.00;100426.25;5035074;28;20032;-79
2022/11/21 06:34:12;;;;;;;80.22;27.75;;;;;;;3.12;100.00;100435.69;5035660;28;20419;-79
2022/11/21 06:36:37;;;;;;;82.50;28.73;;;;;;;3.12;100.00;100435.69;5035522;28;20038;-80
2022/11/21 06:39:02;;;;;;;79.75;27.63;;;;;;;3.11;100.00;100434.00;5017029;28;20025;-79
2022/11/21 06:41:31;;;;;;;83.28;28.35;;;;;;;3.12;100.00;100433.13;5035351;28;20044;-79
2022/11/21 06:44:00;;;;;;;89.38;30.48;;;;;;;3.05;100.00;100428.81;5035514;28;20457;-79
2022/11/21 06:46:25;;;;;;;99.90;28.55;;;;;;;3.02;100.00;100432.25;5052949;23;20431;-79
2022/11/21 06:48:50;;;;;;;102.72;31.42;;;;;;;3.02;100.00;100434.81;5055360;28;20112;-79
2022/11/21 06:51:21;;;;;;;89.85;28.42;;;;;;;2.99;100.00;100431.41;5055245;28;20040;-79
2022/11/21 06:53:54;;;;;;;82.72;28.30;;;;;;;3.03;100.00;100426.22;5054674;28;20025;-79
2022/11/21 06:56:20;;;;;;;97.22;29.50;;;;;;;3.07;100.00;100423.66;5055401;28;20031;-79
2022/11/21 06:58:45;;;;;;;92.07;29.52;;;;;;;3.05;100.00;100434.84;5055325;28;20029;-80
2022/11/21 07:01:11;;;;;;;100.55;29.83;;;;;;;3.05;100.00;100432.25;5054388;28;20021;-79
2022/11/21 07:03:36;;;;;;;78.00;28.02;;;;;;;2.99;100.00;100416.78;5054048;28;20377;-79
2022/11/21 07:06:02;;;;;;;106.70;28.25;;;;;;;2.91;100.00;100422.78;5054863;28;20028;-79
2022/11/21 07:08:29;;;;;;;70.10;26.00;;;;;;;2.97;100.00;100421.06;5054420;28;20074;-79
2022/11/21 07:10:55;;;;;;;70.93;27.13;;;;;;;2.95;100.00;100420.22;5055081;28;20052;-79
2022/11/21 07:13:20;;;;;;;102.13;29.02;;;;;;;2.98;100.00;100417.66;5054032;28;20377;-79
2022/11/21 07:15:47;;;;;;;98.15;27.77;;;;;;;2.98;100.00;100404.78;5055082;28;20033;-79
2022/11/21 07:18:13;;;;;;;100.75;28.38;;;;;;;3.01;100.00;100419.38;5054563;28;20057;-79
2022/11/21 07:20:39;;;;;;;101.55;27.83;;;;;;;3.07;100.00;100421.94;5054129;28;20068;-79
2022/11/21 07:23:05;;;;;;;83.78;27.30;;;;;;;3.17;100.00;100417.66;5054912;28;20029;-79
2022/11/21 07:25:30;;;;;;;89.03;28.25;;;;;;;3.19;100.00;100397.91;5054738;28;20086;-79
2022/11/21 07:28:02;;;;;;;129.43;29.35;;;;;;;3.28;100.00;100411.66;5054075;28;20025;-79
2022/11/21 07:30:28;;;;;;;93.50;26.33;;;;;;;3.34;100.00;100395.34;5054605;28;20361;-79
2022/11/21 07:32:58;;;;;;;98.85;26.25;;;;;;;3.41;100.00;100409.91;5054520;28;20032;-79
2022/11/21 07:35:24;;;;;;;102.95;26.67;;;;;;;3.47;100.00;100403.91;5053850;28;20086;-79
2022/11/21 07:37:49;;;;;;;88.82;26.15;;;;;;;3.54;100.00;100409.91;5054345;28;20025;-79
2022/11/21 07:40:15;;;;;;;76.10;24.98;;;;;;;3.57;100.00;100400.44;5054407;28;20032;-79
2022/11/21 07:42:40;;;;;;;92.45;25.42;;;;;;;3.61;100.00;100406.47;5053802;28;20077;-79
2022/11/21 07:45:06;;;;;;;77.22;23.45;;;;;;;3.61;100.00;100396.16;5054349;28;20033;-81
2022/11/21 07:47:31;;;;;;;76.90;23.40;;;;;;;3.63;100.00;100402.13;5054092;28;20116;-79
2022/11/21 07:49:57;;;;;;;75.78;22.73;;;;;;;3.60;100.00;100402.19;5053499;28;20025;-79
2022/11/21 07:52:22;;;;;;;77.70;22.73;;;;;;;3.66;100.00;100402.13;5054210;28;20021;-79
2022/11/21 07:54:47;;;;;;;72.20;21.73;;;;;;;3.71;100.00;100410.72;5054279;28;20056;-79
2022/11/21 07:57:13;;;;;;;67.50;21.38;;;;;;;3.73;100.00;100394.41;5053205;28;20029;-79
2022/11/21 07:59:38;;;;;;;62.80;20.13;;;;;;;3.75;100.00;100390.06;5054124;28;20057;-79
2022/11/21 08:02:03;;;;;;;68.68;21.08;;;;;;;3.72;100.00;100377.19;5054172;28;20083;-79
2022/11/21 08:04:29;;;;;;;62.85;21.33;;;;;;;3.78;100.00;100386.63;5053253;28;20017;-79
2022/11/21 08:06:54;;;;;;;63.88;21.08;;;;;;;3.72;100.00;100381.50;5054117;28;20066;-79
2022/11/21 08:09:19;;;;;;;67.53;20.98;;;;;;;3.69;100.00;100387.50;5054077;28;20052;-79
2022/11/21 08:11:45;;;;;;;53.20;18.88;;;;;;;3.57;100.00;100390.16;5053042;28;20488;-79
2022/11/21 08:14:10;;;;;;;51.90;17.85;;;;;;;3.50;100.00;100397.03;5053585;28;20033;-79
2022/11/21 08:16:35;;;;;;;60.65;18.25;;;;;;;3.39;100.00;100382.44;5052899;28;20032;-79
2022/11/21 08:19:01;;;;;;;51.58;17.45;;;;;;;3.37;100.00;100387.59;5053933;28;20017;-79
2022/11/21 08:21:26;;;;;;;56.67;17.90;;;;;;;3.37;100.00;100392.75;5053865;28;20025;-79
2022/11/21 08:23:53;;;;;;;54.60;17.58;;;;;;;3.33;100.00;100377.28;5053081;28;20591;-79
2022/11/21 08:26:18;;;;;;;58.53;16.70;;;;;;;3.37;100.00;100379.88;5053799;28;20050;-79
2022/11/21 08:28:43;;;;;;;46.30;15.88;;;;;;;3.33;100.00;100377.28;5053747;28;20021;-79
2022/11/21 08:31:09;;;;;;;55.83;16.90;;;;;;;3.28;100.00;100354.13;5052651;28;20025;-79
2022/11/21 08:33:34;;;;;;;49.47;16.35;;;;;;;3.35;100.00;100366.13;5053691;28;20461;-79
2022/11/21 08:36:04;;;;;;;42.28;15.88;;;;;;;3.36;100.00;100342.06;5053712;28;20395;-80
2022/11/21 08:38:29;;;;;;;47.15;15.25;;;;;;;3.36;100.00;100344.63;5052523;28;20037;-79
2022/11/21 08:43:38;;;;;;;41.75;14.70;;;;;;;3.45;100.00;100338.63;5053652;28;20040;-79
2022/11/21 08:46:04;;;;;;;41.30;14.32;;;;;;;3.48;100.00;100341.19;5052268;28;20037;-79
2022/11/21 08:48:29;;;;;;;46.65;15.52;;;;;;;3.49;100.00;100343.75;5053448;28;20396;-79
2022/11/21 08:50:56;;;;;;;53.97;15.77;;;;;;;3.50;100.00;100344.63;5053445;28;20060;-79
2022/11/21 08:53:21;;;;;;;45.35;15.82;;;;;;;3.55;100.00;100347.19;5052505;28;20479;-79
2022/11/21 08:55:46;;;;;;;43.80;16.00;;;;;;;3.58;100.00;100342.88;5053474;28;20105;-79
2022/11/21 08:58:12;;;;;;;40.88;15.10;;;;;;;3.55;100.00;100326.56;5053097;28;20484;-79
2022/11/21 09:00:37;;;;;;;37.00;15.43;;;;;;;3.64;100.00;100334.28;5052399;28;20078;-79
2022/11/21 09:03:05;;;;;;;52.28;16.23;;;;;;;3.66;100.00;100335.09;5053350;28;20029;-79
2022/11/21 09:05:32;;;;;;;55.70;15.50;;;;;;;3.69;100.00;100335.09;5053419;28;20025;-79
2022/11/21 09:07:58;;;;;;;45.20;14.82;;;;;;;3.73;100.00;100336.81;5052547;28;20037;-79
2022/11/21 09:10:26;;;;;;;41.35;15.25;;;;;;;3.73;100.00;100326.50;5053331;28;20151;-79
2022/11/21 09:12:52;;;;;;;51.25;15.70;;;;;;;3.77;100.00;100329.94;5052315;28;20041;-79
2022/11/21 09:18:02;;;;;;;40.42;14.80;;;;;;;3.74;100.00;100328.22;5052991;28;20044;-79
2022/11/21 09:20:28;;;;;;;40.88;15.07;;;;;;;3.77;100.00;100323.06;5052264;28;20384;-79
2022/11/21 09:22:53;;;;;;;38.00;14.75;;;;;;;3.78;100.00;100316.16;5053248;28;20028;-79
2022/11/21 09:25:18;;;;;;;47.20;14.75;;;;;;;3.85;100.00;100326.44;5053158;28;20028;-79
2022/11/21 09:27:43;;;;;;;43.53;14.90;;;;;;;3.85;100.00;100321.28;5055960;28;20108;-79
2022/11/21 09:30:09;;;;;;;42.08;15.52;;;;;;;3.88;100.00;100313.53;5056738;28;20029;-79
2022/11/21 09:32:35;;;;;;;41.70;14.02;;;;;;;3.91;100.00;100313.53;5056972;28;20055;-79
2022/11/21 09:35:01;;;;;;;45.90;15.57;;;;;;;3.89;100.00;100294.66;5056213;28;20025;-79
2022/11/21 09:37:26;;;;;;;44.50;15.02;;;;;;;3.89;100.00;100296.34;5056863;28;20021;-79
2022/11/21 09:39:51;;;;;;;39.25;13.90;;;;;;;3.90;100.00;100298.94;5056533;28;20468;-79
2022/11/21 09:42:28;;;;;;;46.80;14.73;;;;;;;3.95;100.00;100299.75;5056082;28;20040;-79
2022/11/21 09:44:54;;;;;;;38.00;13.63;;;;;;;3.96;100.00;100301.47;5056545;28;20534;-79
2022/11/21 09:47:35;;;;;;;48.50;15.10;;;;;;;3.93;100.00;100288.59;5056405;28;20056;-79
2022/11/21 09:50:23;;;;;;;47.47;15.38;;;;;;;4.00;100.00;100289.41;5055253;28;20365;-79
2022/11/21 09:52:59;;;;;;;44.20;13.65;;;;;;;3.98;100.00;100276.50;5056469;28;20469;-80
2022/11/21 09:55:33;;;;;;;37.72;13.90;;;;;;;4.10;100.00;100285.06;5055823;28;20017;-79
2022/11/21 09:58:34;;;;;;;41.05;14.50;;;;;;;4.16;100.00;100282.44;5056382;28;20033;-80
2022/11/21 10:00:59;;;;;;;44.47;14.23;;;;;;;4.23;100.00;100281.53;5056189;28;20044;-80
2022/11/21 10:03:29;;;;;;;44.95;14.43;;;;;;;4.26;100.00;100271.19;5055304;28;20473;-79
2022/11/21 10:06:11;;;;;;;44.83;14.20;;;;;;;4.30;100.00;100274.63;5056329;28;20020;-79
2022/11/21 10:08:55;;;;;;;43.42;15.10;;;;;;;4.35;100.00;100280.59;5056191;28;20370;-79
2022/11/21 10:14:58;;;;;;;47.03;13.27;;;;;;;4.36;100.00;100259.94;5056276;28;20043;-79
2022/11/21 10:17:45;;;;;;;38.42;13.63;;;;;;;4.36;100.00;100256.50;5055055;28;20032;-79
2022/11/21 10:20:39;;;;;;;37.50;13.52;;;;;;;4.46;100.00;100255.56;5056357;28;20040;-79
2022/11/21 10:23:25;;;;;;;44.72;14.13;;;;;;;4.58;100.00;100246.88;5055988;28;20028;-79
2022/11/21 10:25:56;;;;;;;41.92;15.02;;;;;;;4.69;100.00;100237.31;5055847;28;20029;-79
2022/11/21 10:28:36;;;;;;;44.42;14.75;;;;;;;4.77;100.00;100230.31;5055975;28;20032;-79
2022/11/21 10:31:07;;;;;;;41.03;14.13;;;;;;;4.81;100.00;100232.03;5055155;28;20020;-79
2022/11/21 10:33:35;;;;;;;42.30;14.23;;;;;;;4.89;100.00;100226.78;5055776;28;20029;-79
2022/11/21 10:36:05;;;;;;;44.63;14.65;;;;;;;4.91;100.00;100215.56;5055678;28;20108;-79
2022/11/21 10:38:37;;;;;;;42.13;14.80;;;;;;;4.96;100.00;100225.84;5054566;28;20033;-79
2022/11/21 10:41:06;;;;;;;37.15;14.50;;;;;;;5.03;100.00;100211.97;5055817;28;20050;-79
2022/11/21 10:46:21;;;;;;;41.63;14.85;;;;;;;5.18;100.00;100210.13;5054626;28;20087;-79
2022/11/21 10:49:01;;;;;;;42.92;15.32;;;;;;;5.24;100.00;100208.31;5055299;28;20033;-79
2022/11/21 10:51:44;;;;;;;48.53;15.70;;;;;;;5.34;100.00;100209.06;5054452;28;20029;-79
2022/11/21 10:57:18;;;;;;;43.60;15.95;;;;;;;5.40;100.00;100186.56;5055465;28;20040;-79
2022/11/21 11:00:00;;;;;;;39.92;15.95;;;;;;;5.55;100.00;100195.84;5053967;28;20040;-79
2022/11/21 11:02:26;;;;;;;47.20;16.77;;;;;;;5.57;100.00;100186.34;5055045;28;20560;-79
2022/11/21 11:05:20;;;;;;;48.22;16.73;;;;;;;5.58;100.00;100185.47;5055326;28;20100;-79
2022/11/21 11:08:04;;;;;;;46.38;15.20;;;;;;;5.58;100.00;100172.53;5055006;28;20469;-79
2022/11/21 11:10:32;;;;;;;41.08;15.18;;;;;;;5.63;100.00;100178.50;5054934;28;20535;-79
2022/11/21 11:16:03;;;;;;;55.60;15.88;;;;;;;5.68;100.00;100160.34;5055200;28;20036;-79
2022/11/21 11:18:30;;;;;;;51.03;14.77;;;;;;;5.67;100.00;100175.88;5055052;28;20401;-79
2022/11/21 11:21:19;;;;;;;38.22;13.13;;;;;;;5.63;100.00;100169.91;5054244;28;20068;-79
2022/11/21 11:23:45;;;;;;;35.10;12.60;;;;;;;5.55;100.00;100161.38;5054764;28;20048;-79
2022/11/21 11:26:28;;;;;;;38.42;12.85;;;;;;;5.46;100.00;100148.56;5054353;28;20465;-79
2022/11/21 11:29:08;;;;;;;38.92;11.50;;;;;;;5.40;100.00;100152.13;5054409;28;20021;-79
2022/11/21 11:31:56;;;;;;;31.33;12.23;;;;;;;5.36;100.00;100140.09;5054655;28;20040;-79
2022/11/21 11:34:24;;;;;;;31.95;11.07;;;;;;;5.34;100.00;100140.13;5053772;28;20021;-79
2022/11/21 11:37:10;;;;;;;26.95;10.00;;;;;;;5.35;100.00;100136.66;5054745;28;20106;-79
2022/11/21 11:39:40;;;;;;;29.83;8.82;;;;;;;5.27;100.00;100117.81;5054672;28;20053;-79